Time;durP1;ratioP1;P1;durP2;ratioP2;P2;SDS_P1;SDS_P2;PMS_P1;PMS_P2;Temp;Humidity;BMP_temperature;BMP_pressure;BME280_temperature;BME280_humidity;BME280_pressure;Samples;Min_cycle;Max_cycle;Signal;HPM_P1;HPM_P2
2023/06/18 00:01:28;;;;;;;;;;;21.90;88.00;;;;;;5118225;28;19912;-48
2023/06/18 00:03:53;;;;;;;;;;;21.90;88.00;;;;;;5118285;28;20014;-47
2023/06/18 00:06:19;;;;;;;;;;;21.90;88.00;;;;;;5117885;28;19980;-44
2023/06/18 00:08:45;;;;;;;;;;;21.90;88.00;;;;;;5118150;28;19915;-44
2023/06/18 00:11:11;;;;;;;;;;;21.90;88.00;;;;;;5118146;28;19908;-45
2023/06/18 00:13:36;;;;;;;;;;;21.90;88.00;;;;;;5118064;28;19914;-44
2023/06/18 00:16:02;;;;;;;;;;;21.90;88.00;;;;;;5118237;28;19915;-43
2023/06/18 00:18:27;;;;;;;;;;;21.90;88.00;;;;;;5117523;28;19919;-43
2023/06/18 00:20:52;;;;;;;;;;;21.90;88.00;;;;;;5117619;28;19957;-44
2023/06/18 00:23:18;;;;;;;;;;;21.90;88.00;;;;;;5117874;28;19937;-43
2023/06/18 00:25:44;;;;;;;;;;;21.90;88.00;;;;;;5117865;28;19908;-44
2023/06/18 00:28:09;;;;;;;;;;;21.90;88.00;;;;;;5117518;28;19946;-45
2023/06/18 00:30:35;;;;;;;;;;;21.90;88.00;;;;;;5117440;28;19955;-43
2023/06/18 00:33:00;;;;;;;;;;;21.90;88.00;;;;;;5118036;28;19911;-43
2023/06/18 00:35:26;;;;;;;;;;;21.90;88.00;;;;;;5117381;28;19998;-44
2023/06/18 00:37:52;;;;;;;;;;;21.90;88.00;;;;;;5117873;28;19950;-43
2023/06/18 00:40:17;;;;;;;;;;;21.90;88.00;;;;;;5117522;28;19912;-43
2023/06/18 00:42:43;;;;;;;;;;;21.90;88.00;;;;;;5099178;28;20301;-45
2023/06/18 00:45:09;;;;;;;;;;;21.90;88.00;;;;;;5117553;28;19916;-46
2023/06/18 00:47:44;;;;;;;;;;;21.90;88.00;;;;;;5117228;28;20401;-44
2023/06/18 00:50:14;;;;;;;;;;;21.90;88.00;;;;;;5117270;28;19919;-46
2023/06/18 00:52:44;;;;;;;;;;;21.90;88.00;;;;;;5117213;28;19911;-45
2023/06/18 00:55:13;;;;;;;;;;;21.90;87.90;;;;;;5116900;28;19918;-44
2023/06/18 00:57:41;;;;;;;;;;;21.90;87.90;;;;;;5116983;28;19925;-46
2023/06/18 01:00:12;;;;;;;;;;;21.90;88.00;;;;;;5117066;28;19919;-44
2023/06/18 01:02:45;;;;;;;;;;;21.90;88.00;;;;;;5116925;28;19912;-44
2023/06/18 01:05:11;;;;;;;;;;;21.90;88.00;;;;;;5117510;28;19908;-47
2023/06/18 01:07:39;;;;;;;;;;;21.90;88.00;;;;;;5117105;28;20412;-43
2023/06/18 01:10:05;;;;;;;;;;;21.90;88.00;;;;;;5098688;28;19907;-44
2023/06/18 01:12:30;;;;;;;;;;;21.90;87.90;;;;;;5116825;28;19907;-44
2023/06/18 01:14:56;;;;;;;;;;;21.90;87.90;;;;;;5098537;28;19931;-43
2023/06/18 01:17:23;;;;;;;;;;;21.90;87.90;;;;;;5116552;28;19908;-44
2023/06/18 01:19:56;;;;;;;;;;;21.90;87.90;;;;;;5116402;28;19916;-43
2023/06/18 01:22:57;;;;;;;;;;;21.90;87.90;;;;;;5116740;28;19912;-42
2023/06/18 01:25:25;;;;;;;;;;;21.90;87.90;;;;;;5080665;28;19908;-45
2023/06/18 01:27:53;;;;;;;;;;;21.90;87.90;;;;;;5116619;28;19907;-45
2023/06/18 01:30:20;;;;;;;;;;;21.90;87.90;;;;;;5116565;28;20397;-43
2023/06/18 01:32:46;;;;;;;;;;;21.90;87.90;;;;;;5098483;28;20251;-43
2023/06/18 01:35:17;;;;;;;;;;;21.90;87.90;;;;;;5116697;28;19908;-47
2023/06/18 01:37:44;;;;;;;;;;;21.90;87.90;;;;;;5116324;28;19960;-44
2023/06/18 01:40:12;;;;;;;;;;;21.90;87.90;;;;;;5116379;28;19916;-44
2023/06/18 01:42:41;;;;;;;;;;;21.80;87.90;;;;;;5116156;28;19912;-49
2023/06/18 01:45:11;;;;;;;;;;;21.90;88.00;;;;;;5116115;28;19918;-48
2023/06/18 01:47:37;;;;;;;;;;;21.90;88.00;;;;;;5115921;28;19920;-43
2023/06/18 01:50:03;;;;;;;;;;;21.90;87.90;;;;;;5116225;28;19953;-44
2023/06/18 01:52:31;;;;;;;;;;;21.90;88.00;;;;;;5115973;28;19908;-43
2023/06/18 01:54:59;;;;;;;;;;;21.90;87.90;;;;;;5116109;28;19914;-45
2023/06/18 01:57:25;;;;;;;;;;;21.90;87.90;;;;;;5116430;28;19908;-46
2023/06/18 01:59:50;;;;;;;;;;;21.90;87.90;;;;;;5116044;28;19911;-45
2023/06/18 02:02:16;;;;;;;;;;;21.90;87.90;;;;;;5116015;28;20428;-48
2023/06/18 02:04:43;;;;;;;;;;;21.90;87.90;;;;;;5115971;28;20006;-45
2023/06/18 02:07:12;;;;;;;;;;;21.90;88.00;;;;;;5097654;28;19912;-43
2023/06/18 02:09:38;;;;;;;;;;;21.90;87.90;;;;;;5115152;28;19907;-44
2023/06/18 02:12:03;;;;;;;;;;;21.90;87.90;;;;;;5115786;28;19952;-43
2023/06/18 02:14:30;;;;;;;;;;;21.80;87.90;;;;;;5115452;28;19979;-45
2023/06/18 02:16:55;;;;;;;;;;;21.80;87.90;;;;;;5115718;28;19971;-48
2023/06/18 02:19:21;;;;;;;;;;;21.90;88.00;;;;;;5115298;28;19963;-45
2023/06/18 02:21:46;;;;;;;;;;;21.90;87.90;;;;;;5116014;28;19919;-46
2023/06/18 02:24:12;;;;;;;;;;;21.80;87.90;;;;;;5115592;28;19966;-47
2023/06/18 02:26:37;;;;;;;;;;;21.90;87.90;;;;;;5115625;28;20348;-47
2023/06/18 02:29:03;;;;;;;;;;;21.80;87.90;;;;;;5115380;28;19907;-45
2023/06/18 02:31:28;;;;;;;;;;;21.80;87.90;;;;;;5115462;28;19908;-46
2023/06/18 02:33:54;;;;;;;;;;;21.90;88.00;;;;;;5115349;28;20301;-45
2023/06/18 02:36:19;;;;;;;;;;;21.80;87.90;;;;;;5115014;28;19939;-45
2023/06/18 02:38:45;;;;;;;;;;;21.80;87.90;;;;;;5115295;28;19965;-49
2023/06/18 02:41:10;;;;;;;;;;;21.80;87.90;;;;;;5115320;28;19919;-46
2023/06/18 02:43:36;;;;;;;;;;;21.80;87.90;;;;;;5114938;28;19908;-43
2023/06/18 02:46:02;;;;;;;;;;;21.90;88.00;;;;;;5115229;28;20393;-43
2023/06/18 02:48:28;;;;;;;;;;;21.80;87.90;;;;;;5115393;28;19920;-46
2023/06/18 02:50:53;;;;;;;;;;;21.90;88.00;;;;;;5114825;28;19915;-46
2023/06/18 02:53:19;;;;;;;;;;;21.80;87.90;;;;;;5114836;28;20003;-47
2023/06/18 02:55:44;;;;;;;;;;;21.80;87.90;;;;;;5115009;28;19962;-46
2023/06/18 02:58:17;;;;;;;;;;;21.80;87.90;;;;;;5114653;28;20288;-43
2023/06/18 03:00:42;;;;;;;;;;;21.80;87.90;;;;;;5114915;28;19915;-43
2023/06/18 03:03:07;;;;;;;;;;;21.80;87.90;;;;;;5114534;28;20355;-44
2023/06/18 03:05:33;;;;;;;;;;;21.80;87.90;;;;;;5114853;28;19908;-46
2023/06/18 03:07:58;;;;;;;;;;;21.80;87.90;;;;;;5115034;28;19994;-43
2023/06/18 03:10:24;;;;;;;;;;;21.80;88.00;;;;;;5114344;28;19915;-44
2023/06/18 03:12:49;;;;;;;;;;;21.80;88.00;;;;;;5114763;28;19912;-43
2023/06/18 03:15:15;;;;;;;;;;;21.80;88.00;;;;;;5114712;28;20371;-44
2023/06/18 03:17:40;;;;;;;;;;;21.80;87.90;;;;;;5114451;28;19908;-43
2023/06/18 03:20:07;;;;;;;;;;;21.80;88.00;;;;;;5114568;28;20062;-43
2023/06/18 03:22:32;;;;;;;;;;;21.80;87.90;;;;;;5114592;28;19912;-44
2023/06/18 03:25:00;;;;;;;;;;;21.80;87.90;;;;;;5114500;28;19908;-44
2023/06/18 03:27:25;;;;;;;;;;;21.80;88.00;;;;;;5114399;28;19907;-43
2023/06/18 03:29:51;;;;;;;;;;;21.80;87.90;;;;;;5114498;28;19908;-43
2023/06/18 03:32:18;;;;;;;;;;;21.80;87.90;;;;;;5114247;28;19908;-48
2023/06/18 03:34:48;;;;;;;;;;;21.80;87.90;;;;;;5114475;28;19907;-45
2023/06/18 03:37:16;;;;;;;;;;;21.80;87.90;;;;;;5114497;28;19908;-43
2023/06/18 03:39:42;;;;;;;;;;;21.80;87.90;;;;;;5113996;28;19964;-43
2023/06/18 03:42:07;;;;;;;;;;;21.80;87.90;;;;;;5114413;28;19916;-45
2023/06/18 03:44:33;;;;;;;;;;;21.80;87.90;;;;;;5114082;28;19914;-44
2023/06/18 03:46:58;;;;;;;;;;;21.80;87.90;;;;;;5113921;28;19993;-45
2023/06/18 03:49:24;;;;;;;;;;;21.90;88.00;;;;;;5114315;28;19986;-48
2023/06/18 03:51:49;;;;;;;;;;;21.90;87.90;;;;;;5113842;28;19912;-45
2023/06/18 03:54:15;;;;;;;;;;;21.90;87.90;;;;;;5114297;28;20377;-44
2023/06/18 03:56:41;;;;;;;;;;;21.90;87.90;;;;;;5114317;28;19915;-48
2023/06/18 03:59:06;;;;;;;;;;;21.90;87.90;;;;;;5114221;28;19912;-43
2023/06/18 04:01:32;;;;;;;;;;;21.90;87.80;;;;;;5114604;28;19912;-43
2023/06/18 04:03:57;;;;;;;;;;;21.90;87.80;;;;;;5114254;28;20343;-43
2023/06/18 04:06:23;;;;;;;;;;;21.90;87.70;;;;;;5113799;28;19908;-44
2023/06/18 04:08:48;;;;;;;;;;;21.90;87.70;;;;;;5113921;28;20006;-44
2023/06/18 04:11:14;;;;;;;;;;;21.90;87.70;;;;;;5113804;28;19930;-43
2023/06/18 04:13:39;;;;;;;;;;;21.90;87.70;;;;;;5114027;28;19933;-44
2023/06/18 04:16:05;;;;;;;;;;;22.00;87.80;;;;;;5114095;28;20343;-44
2023/06/18 04:18:30;;;;;;;;;;;22.00;87.70;;;;;;5113978;28;20368;-43
2023/06/18 04:20:56;;;;;;;;;;;22.00;87.70;;;;;;5113981;28;20286;-46
2023/06/18 04:23:21;;;;;;;;;;;22.00;87.70;;;;;;5114183;28;19908;-43
2023/06/18 04:25:47;;;;;;;;;;;22.00;87.60;;;;;;5113756;28;19915;-44
2023/06/18 04:28:12;;;;;;;;;;;22.00;87.60;;;;;;5113686;28;19908;-43
2023/06/18 04:30:38;;;;;;;;;;;22.00;87.60;;;;;;5113831;28;20344;-44
2023/06/18 04:33:03;;;;;;;;;;;22.00;87.60;;;;;;5114734;28;19908;-44
2023/06/18 04:35:29;;;;;;;;;;;22.00;87.60;;;;;;5117669;28;20011;-44
2023/06/18 04:37:55;;;;;;;;;;;22.00;87.60;;;;;;5117648;28;20021;-44
2023/06/18 04:40:21;;;;;;;;;;;22.00;87.60;;;;;;5117539;28;19938;-45
2023/06/18 04:42:47;;;;;;;;;;;22.00;87.50;;;;;;5117506;28;20377;-44
2023/06/18 04:45:12;;;;;;;;;;;22.00;87.50;;;;;;5117975;28;19994;-43
2023/06/18 04:47:39;;;;;;;;;;;22.00;87.50;;;;;;5117306;28;19920;-46
2023/06/18 04:50:06;;;;;;;;;;;22.00;87.50;;;;;;5117140;28;19915;-44
2023/06/18 04:52:31;;;;;;;;;;;22.00;87.50;;;;;;5117372;28;19911;-47
2023/06/18 04:54:57;;;;;;;;;;;22.10;87.50;;;;;;5117465;28;19908;-44
2023/06/18 04:57:22;;;;;;;;;;;22.00;87.50;;;;;;5116990;28;20002;-44
2023/06/18 04:59:48;;;;;;;;;;;22.00;87.50;;;;;;5117202;28;19912;-45
2023/06/18 05:02:14;;;;;;;;;;;22.00;87.50;;;;;;5116933;28;20362;-48
2023/06/18 05:04:40;;;;;;;;;;;22.10;87.50;;;;;;5117008;28;19911;-45
2023/06/18 05:07:05;;;;;;;;;;;22.00;87.50;;;;;;5117154;28;20373;-50
2023/06/18 05:09:31;;;;;;;;;;;22.00;87.50;;;;;;5116722;28;19908;-44
2023/06/18 05:11:56;;;;;;;;;;;22.10;87.50;;;;;;5117077;28;19907;-45
2023/06/18 05:14:22;;;;;;;;;;;22.00;87.50;;;;;;5116956;28;19908;-44
2023/06/18 05:16:47;;;;;;;;;;;22.00;87.50;;;;;;5116620;28;19908;-44
2023/06/18 05:19:13;;;;;;;;;;;22.10;87.50;;;;;;5116562;28;19918;-45
2023/06/18 05:21:39;;;;;;;;;;;22.00;87.50;;;;;;5117101;28;19915;-43
2023/06/18 05:24:05;;;;;;;;;;;22.10;87.50;;;;;;5116430;28;19961;-43
2023/06/18 05:26:31;;;;;;;;;;;22.10;87.50;;;;;;5116736;28;19908;-45
2023/06/18 05:28:56;;;;;;;;;;;22.00;87.50;;;;;;5116910;28;19930;-43
2023/06/18 05:31:22;;;;;;;;;;;22.10;87.50;;;;;;5116213;28;19908;-44
2023/06/18 05:33:47;;;;;;;;;;;22.10;87.60;;;;;;5081481;28;19915;-43
2023/06/18 05:36:13;;;;;;;;;;;22.10;87.50;;;;;;5116609;28;20007;-42
2023/06/18 05:38:38;;;;;;;;;;;22.10;87.60;;;;;;5116030;28;19965;-47
2023/06/18 05:41:04;;;;;;;;;;;22.10;87.60;;;;;;5116049;28;19919;-49
2023/06/18 05:43:30;;;;;;;;;;;22.10;87.60;;;;;;5116395;28;19919;-45
2023/06/18 05:45:55;;;;;;;;;;;22.10;87.60;;;;;;5115282;28;20343;-44
2023/06/18 05:48:20;;;;;;;;;;;22.10;87.60;;;;;;5116286;28;19926;-43
2023/06/18 05:50:46;;;;;;;;;;;22.10;87.60;;;;;;5116262;28;19908;-47
2023/06/18 05:53:12;;;;;;;;;;;22.10;87.60;;;;;;5116181;28;19998;-46
2023/06/18 05:55:37;;;;;;;;;;;22.10;87.70;;;;;;5116139;28;20278;-44
2023/06/18 05:58:03;;;;;;;;;;;22.10;87.60;;;;;;5115993;28;19908;-47
2023/06/18 06:00:28;;;;;;;;;;;22.10;87.70;;;;;;5116044;28;19951;-43
2023/06/18 06:02:53;;;;;;;;;;;22.10;87.70;;;;;;5115786;28;20346;-44
2023/06/18 06:05:20;;;;;;;;;;;22.10;87.70;;;;;;5116036;28;20014;-44
2023/06/18 06:07:45;;;;;;;;;;;22.10;87.70;;;;;;5115844;28;19999;-44
2023/06/18 06:10:11;;;;;;;;;;;22.10;87.70;;;;;;5115846;28;19955;-46
2023/06/18 06:12:37;;;;;;;;;;;22.10;87.70;;;;;;5115329;28;19907;-46
2023/06/18 06:15:04;;;;;;;;;;;22.10;87.70;;;;;;5097439;28;19908;-46
2023/06/18 06:17:30;;;;;;;;;;;22.10;87.70;;;;;;5115624;28;19912;-46
2023/06/18 06:19:55;;;;;;;;;;;22.10;87.70;;;;;;5115242;28;20330;-44
2023/06/18 06:22:21;;;;;;;;;;;22.10;87.70;;;;;;5115368;28;20370;-47
2023/06/18 06:24:46;;;;;;;;;;;22.10;87.70;;;;;;5115486;28;20330;-44
2023/06/18 06:27:12;;;;;;;;;;;22.10;87.70;;;;;;5115433;28;19908;-43
2023/06/18 06:29:37;;;;;;;;;;;22.10;87.70;;;;;;5115196;28;19915;-47
2023/06/18 06:32:03;;;;;;;;;;;22.10;87.70;;;;;;5115019;28;20341;-44
2023/06/18 06:34:29;;;;;;;;;;;22.10;87.80;;;;;;5115282;28;19915;-43
2023/06/18 06:36:54;;;;;;;;;;;22.10;87.70;;;;;;5115210;28;19939;-44
2023/06/18 06:39:20;;;;;;;;;;;22.10;87.80;;;;;;5115264;28;19938;-44
2023/06/18 06:41:45;;;;;;;;;;;22.10;87.80;;;;;;5114733;28;19912;-43
2023/06/18 06:44:11;;;;;;;;;;;22.10;87.80;;;;;;5115033;28;19908;-45
2023/06/18 06:46:36;;;;;;;;;;;22.10;87.80;;;;;;5114812;28;19908;-42
2023/06/18 06:49:06;;;;;;;;;;;22.10;87.80;;;;;;5114924;28;19914;-45
2023/06/18 06:51:33;;;;;;;;;;;22.10;87.80;;;;;;5114864;28;19908;-44
2023/06/18 06:53:59;;;;;;;;;;;22.10;87.70;;;;;;5096559;28;19908;-46
2023/06/18 06:56:25;;;;;;;;;;;22.10;87.70;;;;;;5114714;28;19960;-45
2023/06/18 06:58:51;;;;;;;;;;;22.10;87.70;;;;;;5114625;28;19919;-46
2023/06/18 07:01:19;;;;;;;;;;;22.10;87.70;;;;;;5096636;28;19911;-45
2023/06/18 07:03:45;;;;;;;;;;;22.10;87.80;;;;;;5114885;28;19908;-44
2023/06/18 07:06:10;;;;;;;;;;;22.10;87.70;;;;;;5114429;28;19914;-45
2023/06/18 07:08:36;;;;;;;;;;;22.10;87.70;;;;;;5095968;28;19957;-43
2023/06/18 07:11:01;;;;;;;;;;;22.10;88.30;;;;;;5114220;28;19908;-46
2023/06/18 07:13:27;;;;;;;;;;;22.10;87.70;;;;;;5114352;28;20006;-43
2023/06/18 07:15:52;;;;;;;;;;;22.10;87.70;;;;;;5114346;28;19908;-45
2023/06/18 07:18:18;;;;;;;;;;;22.10;87.70;;;;;;5114461;28;19962;-46
2023/06/18 07:20:43;;;;;;;;;;;22.10;87.70;;;;;;5114504;28;19912;-43
2023/06/18 07:23:09;;;;;;;;;;;22.10;87.70;;;;;;5114575;28;20369;-43
2023/06/18 07:25:34;;;;;;;;;;;22.10;87.70;;;;;;5114501;28;19960;-45
2023/06/18 07:28:00;;;;;;;;;;;22.10;87.70;;;;;;5114410;28;19918;-43
2023/06/18 07:30:25;;;;;;;;;;;22.10;87.70;;;;;;5114336;28;19915;-45
2023/06/18 07:32:51;;;;;;;;;;;22.10;87.80;;;;;;5114448;28;19911;-43
2023/06/18 07:35:16;;;;;;;;;;;22.10;87.70;;;;;;5114545;28;20006;-43
2023/06/18 07:37:42;;;;;;;;;;;22.10;87.80;;;;;;5113976;28;20274;-45
2023/06/18 07:40:08;;;;;;;;;;;22.10;87.80;;;;;;5113949;28;20274;-42
2023/06/18 07:42:34;;;;;;;;;;;22.10;87.70;;;;;;5114338;28;19972;-46
2023/06/18 07:44:59;;;;;;;;;;;22.10;87.80;;;;;;5095948;28;20374;-44
2023/06/18 07:47:25;;;;;;;;;;;22.10;87.80;;;;;;5114118;28;19919;-45
2023/06/18 07:49:51;;;;;;;;;;;22.10;87.70;;;;;;5113999;28;19933;-44
2023/06/18 07:52:17;;;;;;;;;;;22.10;87.80;;;;;;5114105;28;19912;-45
2023/06/18 07:54:42;;;;;;;;;;;22.10;87.70;;;;;;5113720;28;19915;-46
2023/06/18 07:57:08;;;;;;;;;;;22.10;87.70;;;;;;5113843;28;20243;-46
2023/06/18 07:59:33;;;;;;;;;;;22.10;87.70;;;;;;5113754;28;19919;-44
2023/06/18 08:01:59;;;;;;;;;;;22.10;87.70;;;;;;5113698;28;19912;-43
2023/06/18 08:04:24;;;;;;;;;;;22.10;87.60;;;;;;5114123;28;20312;-47
2023/06/18 08:06:50;;;;;;;;;;;22.10;87.60;;;;;;5114471;28;19915;-43
2023/06/18 08:09:17;;;;;;;;;;;22.10;87.60;;;;;;5117492;28;19907;-44
2023/06/18 08:11:42;;;;;;;;;;;22.10;87.60;;;;;;5118038;28;19907;-48
2023/06/18 08:14:08;;;;;;;;;;;22.10;87.60;;;;;;5117884;28;19908;-43
2023/06/18 08:16:33;;;;;;;;;;;22.10;87.50;;;;;;5117816;28;19998;-45
2023/06/18 08:18:59;;;;;;;;;;;22.10;87.50;;;;;;5099566;28;19923;-45
2023/06/18 08:21:24;;;;;;;;;;;22.10;87.50;;;;;;5118048;28;19933;-44
2023/06/18 08:23:50;;;;;;;;;;;22.10;87.60;;;;;;5099384;28;20282;-45
2023/06/18 08:26:16;;;;;;;;;;;22.10;87.50;;;;;;5117237;28;19982;-45
2023/06/18 08:28:41;;;;;;;;;;;22.10;87.40;;;;;;5117093;28;19916;-46
2023/06/18 08:31:07;;;;;;;;;;;22.10;87.40;;;;;;5117509;28;19907;-44
2023/06/18 08:33:32;;;;;;;;;;;22.10;87.50;;;;;;5099150;28;19911;-45
2023/06/18 08:35:58;;;;;;;;;;;22.10;87.50;;;;;;5117505;28;19958;-47
2023/06/18 08:38:23;;;;;;;;;;;22.10;87.50;;;;;;5117453;28;19914;-46
2023/06/18 08:40:50;;;;;;;;;;;22.10;87.50;;;;;;5117636;28;19911;-44
2023/06/18 08:43:21;;;;;;;;;;;22.10;87.50;;;;;;5117272;28;19923;-45
2023/06/18 08:45:50;;;;;;;;;;;22.10;87.50;;;;;;5117549;28;19915;-46
2023/06/18 08:48:15;;;;;;;;;;;22.10;87.60;;;;;;5116916;28;20022;-48
2023/06/18 08:50:42;;;;;;;;;;;22.10;87.60;;;;;;5117083;28;19939;-45
2023/06/18 08:53:11;;;;;;;;;;;22.10;87.60;;;;;;5099042;28;19907;-47
2023/06/18 08:55:37;;;;;;;;;;;22.10;87.60;;;;;;5117296;28;19908;-47
2023/06/18 08:58:05;;;;;;;;;;;22.20;87.70;;;;;;5117259;28;20277;-47
2023/06/18 09:00:31;;;;;;;;;;;22.10;87.70;;;;;;5098876;28;19919;-44
2023/06/18 09:02:56;;;;;;;;;;;22.10;88.20;;;;;;5099001;28;19912;-46
2023/06/18 09:05:22;;;;;;;;;;;22.10;87.70;;;;;;5117147;28;19912;-46
2023/06/18 09:07:48;;;;;;;;;;;22.10;87.60;;;;;;5117530;28;19914;-46
2023/06/18 09:10:14;;;;;;;;;;;22.10;87.60;;;;;;5117655;28;19908;-43
2023/06/18 09:12:40;;;;;;;;;;;22.10;87.50;;;;;;5117410;28;19911;-45
2023/06/18 09:15:05;;;;;;;;;;;22.20;87.50;;;;;;5116584;28;19908;-43
2023/06/18 09:17:32;;;;;;;;;;;22.10;87.40;;;;;;5116432;28;19916;-45
2023/06/18 09:19:58;;;;;;;;;;;22.10;87.10;;;;;;5116474;28;19916;-44
2023/06/18 09:22:23;;;;;;;;;;;22.10;86.80;;;;;;5116773;28;20350;-47
2023/06/18 09:24:55;;;;;;;;;;;22.10;86.90;;;;;;5116824;28;20354;-47
2023/06/18 09:27:20;;;;;;;;;;;22.10;87.00;;;;;;5116772;28;19908;-46
2023/06/18 09:29:46;;;;;;;;;;;22.10;86.60;;;;;;5116486;28;20256;-43
2023/06/18 09:32:13;;;;;;;;;;;22.10;86.50;;;;;;5116407;28;20023;-46
2023/06/18 09:34:40;;;;;;;;;;;22.10;86.70;;;;;;5116571;28;19912;-47
2023/06/18 09:37:06;;;;;;;;;;;22.10;86.90;;;;;;5116121;28;19908;-44
2023/06/18 09:39:32;;;;;;;;;;;22.10;87.00;;;;;;5116398;28;19912;-43
2023/06/18 09:42:03;;;;;;;;;;;22.10;87.20;;;;;;5116561;28;19995;-44
2023/06/18 09:44:29;;;;;;;;;;;22.10;87.30;;;;;;5116689;28;20277;-45
2023/06/18 09:46:58;;;;;;;;;;;22.10;87.30;;;;;;5116446;28;20018;-46
2023/06/18 09:49:24;;;;;;;;;;;22.10;87.20;;;;;;5116433;28;19908;-44
2023/06/18 09:51:50;;;;;;;;;;;22.10;87.00;;;;;;5116440;28;19912;-45
2023/06/18 09:54:16;;;;;;;;;;;22.10;87.20;;;;;;5116034;28;20011;-45
2023/06/18 09:56:58;;;;;;;;;;;22.10;87.20;;;;;;5115906;28;20362;-44
2023/06/18 09:59:24;;;;;;;;;;;22.10;87.00;;;;;;5116124;28;19912;-44
2023/06/18 10:01:49;;;;;;;;;;;22.10;87.10;;;;;;5097792;28;19916;-44
2023/06/18 10:04:16;;;;;;;;;;;22.10;87.10;;;;;;5115742;28;19914;-46
2023/06/18 10:06:48;;;;;;;;;;;22.10;86.90;;;;;;5116038;28;20358;-44
2023/06/18 10:09:13;;;;;;;;;;;22.10;87.30;;;;;;5116022;28;20324;-45
2023/06/18 10:11:39;;;;;;;;;;;22.10;86.90;;;;;;5098037;28;19918;-47
2023/06/18 10:14:10;;;;;;;;;;;22.10;87.00;;;;;;5115897;28;20414;-47
2023/06/18 10:16:37;;;;;;;;;;;22.10;87.00;;;;;;5115451;28;19908;-45
2023/06/18 10:19:11;;;;;;;;;;;22.20;86.80;;;;;;5115178;28;20002;-43
2023/06/18 10:21:37;;;;;;;;;;;22.20;86.70;;;;;;5115399;28;20351;-45
2023/06/18 10:24:15;;;;;;;;;;;22.10;86.60;;;;;;5115398;28;20045;-43
2023/06/18 10:26:41;;;;;;;;;;;22.10;86.70;;;;;;5115166;28;19908;-44
2023/06/18 10:29:06;;;;;;;;;;;22.20;86.70;;;;;;5115499;28;19908;-44
2023/06/18 10:31:32;;;;;;;;;;;22.10;86.70;;;;;;5114936;28;20346;-43
2023/06/18 10:33:58;;;;;;;;;;;22.10;86.50;;;;;;5115739;28;20350;-47
2023/06/18 10:36:24;;;;;;;;;;;22.20;86.50;;;;;;5115618;28;19908;-44
2023/06/18 10:38:50;;;;;;;;;;;22.10;86.30;;;;;;5115250;28;20362;-44
2023/06/18 10:41:19;;;;;;;;;;;22.10;86.20;;;;;;5115417;28;19911;-44
2023/06/18 10:43:48;;;;;;;;;;;22.10;86.70;;;;;;5115162;28;20277;-46
2023/06/18 10:46:13;;;;;;;;;;;22.10;86.40;;;;;;5114787;28;19907;-43
2023/06/18 10:48:39;;;;;;;;;;;22.10;86.40;;;;;;5114518;28;20359;-47
2023/06/18 10:51:15;;;;;;;;;;;22.10;86.40;;;;;;5114576;28;19953;-44
2023/06/18 10:53:41;;;;;;;;;;;22.10;86.60;;;;;;5114833;28;19908;-46
2023/06/18 10:56:07;;;;;;;;;;;22.20;86.50;;;;;;5114802;28;20331;-46
2023/06/18 10:58:33;;;;;;;;;;;22.10;86.50;;;;;;5114708;28;20037;-45
2023/06/18 11:00:59;;;;;;;;;;;22.10;86.00;;;;;;5114704;28;19957;-45
2023/06/18 11:03:32;;;;;;;;;;;22.10;86.00;;;;;;5114558;28;20002;-45
2023/06/18 11:06:00;;;;;;;;;;;22.10;86.00;;;;;;5114458;28;19911;-43
2023/06/18 11:08:27;;;;;;;;;;;22.10;86.00;;;;;;5114464;28;20385;-43
2023/06/18 11:11:00;;;;;;;;;;;22.20;86.10;;;;;;5114652;28;19908;-44
2023/06/18 11:13:28;;;;;;;;;;;22.20;86.00;;;;;;5114707;28;20053;-46
2023/06/18 11:15:58;;;;;;;;;;;22.20;86.10;;;;;;5114504;28;20343;-42
2023/06/18 11:18:26;;;;;;;;;;;22.20;86.60;;;;;;5114388;28;19908;-43
2023/06/18 11:20:53;;;;;;;;;;;22.10;86.00;;;;;;5114401;28;20010;-42
2023/06/18 11:23:19;;;;;;;;;;;22.20;86.40;;;;;;5114674;28;19908;-43
2023/06/18 11:25:45;;;;;;;;;;;22.10;86.30;;;;;;5114413;28;19932;-43
2023/06/18 11:28:13;;;;;;;;;;;22.20;86.60;;;;;;5114102;28;19911;-44
2023/06/18 11:30:39;;;;;;;;;;;22.10;86.40;;;;;;5114386;28;19908;-45
2023/06/18 11:33:05;;;;;;;;;;;22.20;86.60;;;;;;5096119;28;19939;-42
2023/06/18 11:35:30;;;;;;;;;;;22.20;86.50;;;;;;5114028;28;19930;-44
2023/06/18 11:37:56;;;;;;;;;;;22.10;86.50;;;;;;5113809;28;20374;-43
2023/06/18 11:40:21;;;;;;;;;;;22.20;86.80;;;;;;5113982;28;19918;-45
2023/06/18 11:42:48;;;;;;;;;;;22.20;86.60;;;;;;5115313;28;20370;-44
2023/06/18 11:45:14;;;;;;;;;;;22.20;86.70;;;;;;5118855;28;19908;-43
2023/06/18 11:47:44;;;;;;;;;;;22.20;86.70;;;;;;5118486;28;19923;-44
2023/06/18 11:50:09;;;;;;;;;;;22.20;86.60;;;;;;5118430;28;19907;-46
2023/06/18 11:52:36;;;;;;;;;;;22.20;87.10;;;;;;5118572;28;20269;-45
2023/06/18 11:55:03;;;;;;;;;;;22.20;86.50;;;;;;5118412;28;19958;-43
2023/06/18 11:57:30;;;;;;;;;;;22.20;86.50;;;;;;5117851;28;19915;-44
2023/06/18 11:59:55;;;;;;;;;;;22.20;86.40;;;;;;5118250;28;20429;-42
2023/06/18 12:02:22;;;;;;;;;;;22.20;86.50;;;;;;5118696;28;19951;-43
2023/06/18 12:04:47;;;;;;;;;;;22.10;86.30;;;;;;5118277;28;19908;-42
2023/06/18 12:07:21;;;;;;;;;;;22.20;86.40;;;;;;5117824;28;19918;-44
2023/06/18 12:09:47;;;;;;;;;;;22.20;86.50;;;;;;5118232;28;19961;-45
2023/06/18 12:12:31;;;;;;;;;;;22.20;86.60;;;;;;5099840;28;19908;-42
2023/06/18 12:15:00;;;;;;;;;;;22.20;86.50;;;;;;5118406;28;19951;-43
2023/06/18 12:17:35;;;;;;;;;;;22.20;86.40;;;;;;5118076;28;20316;-44
2023/06/18 12:20:08;;;;;;;;;;;22.20;86.50;;;;;;5099605;28;19922;-43
2023/06/18 12:22:34;;;;;;;;;;;22.20;86.50;;;;;;5117564;28;20283;-44
2023/06/18 12:25:00;;;;;;;;;;;22.20;86.60;;;;;;5117461;28;19912;-43
2023/06/18 12:27:26;;;;;;;;;;;22.20;86.80;;;;;;5099362;28;19977;-43
2023/06/18 12:29:52;;;;;;;;;;;22.20;87.30;;;;;;5117696;28;20350;-45
2023/06/18 12:32:18;;;;;;;;;;;22.20;86.90;;;;;;5117777;28;19957;-46
2023/06/18 12:34:43;;;;;;;;;;;22.20;87.00;;;;;;5117762;28;19908;-46
2023/06/18 12:37:09;;;;;;;;;;;22.20;86.90;;;;;;5099705;28;19911;-43
2023/06/18 12:39:35;;;;;;;;;;;22.20;86.90;;;;;;5117229;28;19912;-43
2023/06/18 12:42:01;;;;;;;;;;;22.20;86.90;;;;;;5117125;28;19916;-43
2023/06/18 12:44:27;;;;;;;;;;;22.20;87.00;;;;;;5117404;28;19912;-44
2023/06/18 12:46:56;;;;;;;;;;;22.20;86.90;;;;;;5117303;28;20061;-44
2023/06/18 12:49:22;;;;;;;;;;;22.20;86.90;;;;;;5117397;28;19912;-43
2023/06/18 12:51:49;;;;;;;;;;;22.20;86.90;;;;;;5099027;28;20338;-42
2023/06/18 12:54:16;;;;;;;;;;;22.20;86.80;;;;;;5116409;28;20358;-42
2023/06/18 12:56:49;;;;;;;;;;;22.20;86.80;;;;;;5116904;28;20281;-44
2023/06/18 12:59:18;;;;;;;;;;;22.20;86.70;;;;;;5116817;28;20381;-46
2023/06/18 13:01:45;;;;;;;;;;;22.20;86.90;;;;;;5117180;28;19911;-44
2023/06/18 13:04:10;;;;;;;;;;;22.20;87.00;;;;;;5117188;28;19919;-42
2023/06/18 13:06:36;;;;;;;;;;;22.20;86.90;;;;;;5117008;28;20003;-46
2023/06/18 13:09:04;;;;;;;;;;;22.20;86.90;;;;;;5116987;28;19907;-45
2023/06/18 13:11:29;;;;;;;;;;;22.20;86.90;;;;;;5116682;28;19998;-43
2023/06/18 13:13:55;;;;;;;;;;;22.20;86.80;;;;;;5116635;28;19966;-44
2023/06/18 13:16:20;;;;;;;;;;;22.20;87.00;;;;;;5116617;28;20351;-43
2023/06/18 13:18:46;;;;;;;;;;;22.20;86.90;;;;;;5116377;28;19919;-42
2023/06/18 13:21:12;;;;;;;;;;;22.20;86.90;;;;;;5098235;28;19919;-46
2023/06/18 13:23:37;;;;;;;;;;;22.20;86.90;;;;;;5098174;28;20257;-44
2023/06/18 13:26:03;;;;;;;;;;;22.20;86.80;;;;;;5117094;28;19915;-44
2023/06/18 13:28:29;;;;;;;;;;;22.20;86.90;;;;;;5116502;28;19977;-43
2023/06/18 13:30:54;;;;;;;;;;;22.20;86.90;;;;;;5116851;28;20411;-45
2023/06/18 13:33:20;;;;;;;;;;;22.20;86.90;;;;;;5116491;28;19912;-45
2023/06/18 13:35:45;;;;;;;;;;;22.20;86.90;;;;;;5116004;28;19908;-44
2023/06/18 13:38:11;;;;;;;;;;;22.20;87.00;;;;;;5116004;28;19907;-43
2023/06/18 13:40:37;;;;;;;;;;;22.20;86.90;;;;;;5116137;28;19938;-49
2023/06/18 13:43:03;;;;;;;;;;;22.20;86.90;;;;;;5116159;28;20339;-46
2023/06/18 13:45:28;;;;;;;;;;;22.20;87.00;;;;;;5116095;28;19908;-49
2023/06/18 13:47:54;;;;;;;;;;;22.20;87.00;;;;;;5115941;28;20432;-47
2023/06/18 13:50:19;;;;;;;;;;;22.20;87.00;;;;;;5116228;28;19912;-45
2023/06/18 13:52:45;;;;;;;;;;;22.20;86.90;;;;;;5097960;28;19908;-46
2023/06/18 13:55:11;;;;;;;;;;;22.20;86.90;;;;;;5115963;28;20346;-45
2023/06/18 13:57:37;;;;;;;;;;;22.20;86.90;;;;;;5116052;28;19956;-45
2023/06/18 14:00:03;;;;;;;;;;;22.20;86.80;;;;;;5116069;28;19912;-46
2023/06/18 14:02:28;;;;;;;;;;;22.20;86.90;;;;;;5116090;28;19912;-45
2023/06/18 14:04:54;;;;;;;;;;;22.20;86.80;;;;;;5115569;28;19915;-43
2023/06/18 14:07:20;;;;;;;;;;;22.20;86.80;;;;;;5115510;28;19961;-43
2023/06/18 14:09:46;;;;;;;;;;;22.20;86.90;;;;;;5115898;28;20006;-43
2023/06/18 14:12:12;;;;;;;;;;;22.20;87.00;;;;;;5116155;28;19912;-45